sensor_id;sensor_type;location;lat;lon;timestamp;pressure;altitude;pressure_sealevel;temperature;humidity
68226;BME280;55045;49.410;11.030;2022-12-07T00:01:05;98086.84;;;1.52;100.00
68226;BME280;55045;49.410;11.030;2022-12-07T00:04:11;98080.16;;;1.43;100.00
68226;BME280;55045;49.410;11.030;2022-12-07T00:07:16;98083.56;;;1.43;100.00
68226;BME280;55045;49.410;11.030;2022-12-07T00:10:27;98075.75;;;1.53;100.00
68226;BME280;55045;49.410;11.030;2022-12-07T00:13:31;98038.75;;;1.17;100.00
68226;BME280;55045;49.410;11.030;2022-12-07T00:16:36;98081.94;;;1.38;100.00
68226;BME280;55045;49.410;11.030;2022-12-07T00:19:39;98079.41;;;1.36;100.00
68226;BME280;55045;49.410;11.030;2022-12-07T00:22:44;98078.63;;;1.28;100.00
68226;BME280;55045;49.410;11.030;2022-12-07T00:25:47;98069.09;;;1.41;100.00
68226;BME280;55045;49.410;11.030;2022-12-07T00:28:52;98076.88;;;1.33;100.00
68226;BME280;55045;49.410;11.030;2022-12-07T00:31:56;98066.84;;;1.18;100.00
68226;BME280;55045;49.410;11.030;2022-12-07T00:34:59;98076.19;;;1.19;100.00
68226;BME280;55045;49.410;11.030;2022-12-07T00:38:04;98063.50;;;1.13;100.00
68226;BME280;55045;49.410;11.030;2022-12-07T00:41:10;98033.06;;;0.95;100.00
68226;BME280;55045;49.410;11.030;2022-12-07T00:44:14;98074.53;;;1.15;100.00
68226;BME280;55045;49.410;11.030;2022-12-07T00:47:17;98076.22;;;1.16;100.00
68226;BME280;55045;49.410;11.030;2022-12-07T00:50:23;98070.22;;;1.20;100.00
68226;BME280;55045;49.410;11.030;2022-12-07T00:53:28;98073.63;;;1.19;100.00
68226;BME280;55045;49.410;11.030;2022-12-07T00:56:34;98075.38;;;1.17;100.00
68226;BME280;55045;49.410;11.030;2022-12-07T00:59:37;98080.38;;;1.26;100.00
68226;BME280;55045;49.410;11.030;2022-12-07T01:02:41;98082.88;;;1.29;100.00
68226;BME280;55045;49.410;11.030;2022-12-07T01:05:51;98082.06;;;1.27;100.00
68226;BME280;55045;49.410;11.030;2022-12-07T01:08:56;98085.53;;;1.23;100.00
68226;BME280;55045;49.410;11.030;2022-12-07T01:12:00;98081.13;;;1.34;100.00
68226;BME280;55045;49.410;11.030;2022-12-07T01:15:05;98075.31;;;1.20;100.00
68226;BME280;55045;49.410;11.030;2022-12-07T01:18:09;98076.13;;;1.25;100.00
68226;BME280;55045;49.410;11.030;2022-12-07T01:21:15;98069.38;;;1.18;100.00
68226;BME280;55045;49.410;11.030;2022-12-07T01:24:20;98082.97;;;1.23;100.00
68226;BME280;55045;49.410;11.030;2022-12-07T01:27:23;98074.38;;;1.29;100.00
68226;BME280;55045;49.410;11.030;2022-12-07T01:30:26;98086.38;;;1.24;100.00
68226;BME280;55045;49.410;11.030;2022-12-07T01:33:31;98047.44;;;1.00;100.00
68226;BME280;55045;49.410;11.030;2022-12-07T01:36:36;98098.34;;;1.19;100.00
68226;BME280;55045;49.410;11.030;2022-12-07T01:39:41;98087.22;;;1.24;100.00
68226;BME280;55045;49.410;11.030;2022-12-07T01:42:45;98099.06;;;1.30;100.00
68226;BME280;55045;49.410;11.030;2022-12-07T01:45:49;98087.22;;;1.21;100.00
68226;BME280;55045;49.410;11.030;2022-12-07T01:48:52;98076.16;;;1.21;100.00
68226;BME280;55045;49.410;11.030;2022-12-07T01:52:01;98085.53;;;1.20;100.00
68226;BME280;55045;49.410;11.030;2022-12-07T01:55:09;98083.69;;;1.31;100.00
68226;BME280;55045;49.410;11.030;2022-12-07T01:58:14;98081.22;;;1.27;100.00
68226;BME280;55045;49.410;11.030;2022-12-07T02:01:18;98081.84;;;1.42;100.00
68226;BME280;55045;49.410;11.030;2022-12-07T02:04:22;98069.34;;;1.23;100.00
68226;BME280;55045;49.410;11.030;2022-12-07T02:07:26;98075.94;;;1.40;100.00
68226;BME280;55045;49.410;11.030;2022-12-07T02:10:32;98071.78;;;1.33;100.00
68226;BME280;55045;49.410;11.030;2022-12-07T02:13:38;98049.00;;;1.12;100.00
68226;BME280;55045;49.410;11.030;2022-12-07T02:16:49;98064.94;;;1.32;100.00
68226;BME280;55045;49.410;11.030;2022-12-07T02:20:09;98077.84;;;1.23;100.00
68226;BME280;55045;49.410;11.030;2022-12-07T02:27:13;98066.72;;;1.27;100.00
68226;BME280;55045;49.410;11.030;2022-12-07T02:30:28;98072.63;;;1.31;100.00
68226;BME280;55045;49.410;11.030;2022-12-07T02:33:37;98070.19;;;1.23;100.00
68226;BME280;55045;49.410;11.030;2022-12-07T02:36:46;98075.31;;;1.23;100.00
68226;BME280;55045;49.410;11.030;2022-12-07T02:39:57;98079.53;;;1.26;100.00
68226;BME280;55045;49.410;11.030;2022-12-07T02:43:08;98069.34;;;1.21;100.00
68226;BME280;55045;49.410;11.030;2022-12-07T02:46:17;98066.66;;;1.33;100.00
68226;BME280;55045;49.410;11.030;2022-12-07T02:49:24;98054.03;;;1.23;100.00
68226;BME280;55045;49.410;11.030;2022-12-07T02:52:29;98059.16;;;1.20;100.00
68226;BME280;55045;49.410;11.030;2022-12-07T02:55:37;98055.69;;;1.22;100.00
68226;BME280;55045;49.410;11.030;2022-12-07T02:58:50;98054.88;;;1.20;100.00
68226;BME280;55045;49.410;11.030;2022-12-07T03:02:13;98049.75;;;1.23;100.00
68226;BME280;55045;49.410;11.030;2022-12-07T03:05:31;98043.75;;;1.26;100.00
68226;BME280;55045;49.410;11.030;2022-12-07T03:08:49;98040.25;;;1.33;100.00
68226;BME280;55045;49.410;11.030;2022-12-07T03:12:00;98028.59;;;1.13;100.00
68226;BME280;55045;49.410;11.030;2022-12-07T03:15:06;98024.63;;;0.86;100.00
68226;BME280;55045;49.410;11.030;2022-12-07T03:18:16;98024.72;;;0.77;100.00
68226;BME280;55045;49.410;11.030;2022-12-07T03:21:25;98021.25;;;0.81;100.00
68226;BME280;55045;49.410;11.030;2022-12-07T03:24:35;98021.41;;;0.72;100.00
68226;BME280;55045;49.410;11.030;2022-12-07T03:27:43;98023.09;;;0.72;100.00
68226;BME280;55045;49.410;11.030;2022-12-07T03:30:52;98023.22;;;0.58;100.00
68226;BME280;55045;49.410;11.030;2022-12-07T03:34:04;98008.72;;;0.60;100.00
68226;BME280;55045;49.410;11.030;2022-12-07T03:37:12;98011.09;;;0.78;100.00
68226;BME280;55045;49.410;11.030;2022-12-07T03:40:23;98006.06;;;0.72;100.00
68226;BME280;55045;49.410;11.030;2022-12-07T03:43:29;98003.91;;;1.11;100.00
68226;BME280;55045;49.410;11.030;2022-12-07T03:46:37;97997.63;;;0.67;100.00
68226;BME280;55045;49.410;11.030;2022-12-07T03:49:56;97997.66;;;0.64;100.00
68226;BME280;55045;49.410;11.030;2022-12-07T03:53:05;97946.84;;;0.43;100.00
68226;BME280;55045;49.410;11.030;2022-12-07T03:56:13;98008.69;;;0.66;100.00
68226;BME280;55045;49.410;11.030;2022-12-07T03:59:18;98001.28;;;0.42;100.00
68226;BME280;55045;49.410;11.030;2022-12-07T04:02:22;98002.75;;;0.64;100.00
68226;BME280;55045;49.410;11.030;2022-12-07T04:05:28;98012.81;;;-0.14;100.00
68226;BME280;55045;49.410;11.030;2022-12-07T04:08:33;98018.00;;;-0.31;100.00
68226;BME280;55045;49.410;11.030;2022-12-07T04:11:37;98015.28;;;-0.05;100.00
68226;BME280;55045;49.410;11.030;2022-12-07T04:14:41;98017.25;;;-0.45;100.00
68226;BME280;55045;49.410;11.030;2022-12-07T04:17:44;98012.22;;;-0.50;100.00
68226;BME280;55045;49.410;11.030;2022-12-07T04:20:49;98017.94;;;-0.22;100.00
68226;BME280;55045;49.410;11.030;2022-12-07T04:23:52;98013.13;;;-0.60;100.00
68226;BME280;55045;49.410;11.030;2022-12-07T04:26:56;98018.16;;;-0.54;100.00
68226;BME280;55045;49.410;11.030;2022-12-07T04:30:00;98021.59;;;-0.60;100.00
68226;BME280;55045;49.410;11.030;2022-12-07T04:34:49;98021.66;;;-0.70;100.00
68226;BME280;55045;49.410;11.030;2022-12-07T04:37:56;98030.09;;;-0.61;100.00
68226;BME280;55045;49.410;11.030;2022-12-07T04:41:04;98034.28;;;-0.52;100.00
68226;BME280;55045;49.410;11.030;2022-12-07T04:44:08;98000.25;;;-0.43;100.00
68226;BME280;55045;49.410;11.030;2022-12-07T04:47:11;98018.47;;;0.21;100.00
68226;BME280;55045;49.410;11.030;2022-12-07T04:50:16;98030.84;;;-0.46;100.00
68226;BME280;55045;49.410;11.030;2022-12-07T04:53:19;98020.41;;;-0.08;100.00
68226;BME280;55045;49.410;11.030;2022-12-07T04:56:24;98005.44;;;-0.51;100.00
68226;BME280;55045;49.410;11.030;2022-12-07T04:59:27;98031.28;;;0.15;100.00
68226;BME280;55045;49.410;11.030;2022-12-07T05:02:30;97973.97;;;-0.48;100.00
68226;BME280;55045;49.410;11.030;2022-12-07T05:05:35;98034.72;;;0.08;100.00
68226;BME280;55045;49.410;11.030;2022-12-07T05:08:39;98035.50;;;0.16;100.00
68226;BME280;55045;49.410;11.030;2022-12-07T05:11:43;98029.44;;;0.29;100.00
68226;BME280;55045;49.410;11.030;2022-12-07T05:14:46;98021.88;;;0.20;100.00
68226;BME280;55045;49.410;11.030;2022-12-07T05:17:50;98024.31;;;0.34;100.00
68226;BME280;55045;49.410;11.030;2022-12-07T05:20:55;98012.53;;;0.19;100.00
68226;BME280;55045;49.410;11.030;2022-12-07T05:24:04;97974.25;;;0.22;100.00
68226;BME280;55045;49.410;11.030;2022-12-07T05:27:07;98003.88;;;0.36;100.00
68226;BME280;55045;49.410;11.030;2022-12-07T05:30:11;98008.00;;;0.52;100.00
68226;BME280;55045;49.410;11.030;2022-12-07T05:33:15;98008.75;;;0.58;100.00
68226;BME280;55045;49.410;11.030;2022-12-07T05:36:22;98019.25;;;0.28;100.00
68226;BME280;55045;49.410;11.030;2022-12-07T05:39:26;98010.34;;;0.69;100.00
68226;BME280;55045;49.410;11.030;2022-12-07T05:42:29;98012.22;;;0.53;100.00
68226;BME280;55045;49.410;11.030;2022-12-07T05:45:32;98013.09;;;0.49;100.00
68226;BME280;55045;49.410;11.030;2022-12-07T05:48:36;97990.31;;;0.32;100.00
68226;BME280;55045;49.410;11.030;2022-12-07T05:51:43;97985.97;;;0.40;100.00
68226;BME280;55045;49.410;11.030;2022-12-07T05:54:46;98011.31;;;0.57;100.00
68226;BME280;55045;49.410;11.030;2022-12-07T05:57:49;98009.41;;;0.77;100.00
68226;BME280;55045;49.410;11.030;2022-12-07T06:01:06;98006.28;;;0.49;100.00
68226;BME280;55045;49.410;11.030;2022-12-07T06:04:09;97999.47;;;0.53;100.00
68226;BME280;55045;49.410;11.030;2022-12-07T06:07:15;97986.88;;;0.36;100.00
68226;BME280;55045;49.410;11.030;2022-12-07T06:10:19;97989.28;;;0.50;100.00
68226;BME280;55045;49.410;11.030;2022-12-07T06:13:23;97999.28;;;0.68;100.00
68226;BME280;55045;49.410;11.030;2022-12-07T06:16:25;98002.13;;;0.44;100.00
68226;BME280;55045;49.410;11.030;2022-12-07T06:19:28;97994.50;;;0.38;100.00
68226;BME280;55045;49.410;11.030;2022-12-07T06:22:33;98001.13;;;0.57;100.00
68226;BME280;55045;49.410;11.030;2022-12-07T06:25:37;97996.97;;;0.47;100.00
68226;BME280;55045;49.410;11.030;2022-12-07T06:28:40;97995.16;;;0.58;100.00
68226;BME280;55045;49.410;11.030;2022-12-07T06:31:44;97969.09;;;0.28;100.00
68226;BME280;55045;49.410;11.030;2022-12-07T06:34:48;98002.91;;;0.49;100.00
68226;BME280;55045;49.410;11.030;2022-12-07T06:37:52;98001.00;;;0.69;100.00
68226;BME280;55045;49.410;11.030;2022-12-07T06:40:59;98007.91;;;0.60;100.00
68226;BME280;55045;49.410;11.030;2022-12-07T06:44:02;97993.50;;;0.54;100.00
68226;BME280;55045;49.410;11.030;2022-12-07T06:47:07;97998.34;;;0.77;100.00
68226;BME280;55045;49.410;11.030;2022-12-07T06:50:31;98008.69;;;0.66;100.00
68226;BME280;55045;49.410;11.030;2022-12-07T06:53:36;97969.56;;;0.64;100.00
68226;BME280;55045;49.410;11.030;2022-12-07T06:56:46;97995.91;;;0.66;100.00
68226;BME280;55045;49.410;11.030;2022-12-07T06:59:49;97995.00;;;0.70;100.00
68226;BME280;55045;49.410;11.030;2022-12-07T07:02:54;97978.25;;;0.48;100.00
68226;BME280;55045;49.410;11.030;2022-12-07T07:06:00;98009.41;;;0.77;100.00
68226;BME280;55045;49.410;11.030;2022-12-07T07:09:08;98006.97;;;0.68;100.00
68226;BME280;55045;49.410;11.030;2022-12-07T07:12:18;97993.28;;;0.75;100.00
68226;BME280;55045;49.410;11.030;2022-12-07T07:15:24;98000.94;;;0.74;100.00
68226;BME280;55045;49.410;11.030;2022-12-07T07:18:30;98011.06;;;0.81;100.00
68226;BME280;55045;49.410;11.030;2022-12-07T07:21:36;98009.34;;;0.85;100.00
68226;BME280;55045;49.410;11.030;2022-12-07T07:24:41;98002.25;;;1.08;100.00
68226;BME280;55045;49.410;11.030;2022-12-07T07:27:44;97984.97;;;1.27;100.00
68226;BME280;55045;49.410;11.030;2022-12-07T07:30:47;98006.56;;;1.05;100.00
68226;BME280;55045;49.410;11.030;2022-12-07T07:33:52;98010.06;;;0.96;100.00
68226;BME280;55045;49.410;11.030;2022-12-07T07:36:55;98009.09;;;1.05;100.00
68226;BME280;55045;49.410;11.030;2022-12-07T07:40:02;98004.00;;;1.05;100.00
68226;BME280;55045;49.410;11.030;2022-12-07T07:43:06;98009.84;;;1.13;100.00
68226;BME280;55045;49.410;11.030;2022-12-07T07:46:09;98012.41;;;1.13;100.00
68226;BME280;55045;49.410;11.030;2022-12-07T07:49:13;98007.28;;;1.14;100.00
68226;BME280;55045;49.410;11.030;2022-12-07T07:52:16;98011.41;;;1.25;100.00
68226;BME280;55045;49.410;11.030;2022-12-07T07:55:21;98015.47;;;1.39;100.00
68226;BME280;55045;49.410;11.030;2022-12-07T07:58:24;98019.00;;;1.29;100.00
68226;BME280;55045;49.410;11.030;2022-12-07T08:01:28;98018.19;;;1.27;100.00
68226;BME280;55045;49.410;11.030;2022-12-07T08:04:32;98019.78;;;1.36;100.00
68226;BME280;55045;49.410;11.030;2022-12-07T08:07:36;98010.38;;;1.38;100.00
68226;BME280;55045;49.410;11.030;2022-12-07T08:10:43;98009.22;;;1.60;100.00
68226;BME280;55045;49.410;11.030;2022-12-07T08:13:48;98016.16;;;1.51;100.00
68226;BME280;55045;49.410;11.030;2022-12-07T08:16:51;98020.41;;;1.52;100.00
68226;BME280;55045;49.410;11.030;2022-12-07T08:19:55;98017.16;;;1.40;100.00
68226;BME280;55045;49.410;11.030;2022-12-07T08:22:59;98028.41;;;1.89;100.00
68226;BME280;55045;49.410;11.030;2022-12-07T08:26:10;98029.81;;;1.50;100.00
68226;BME280;55045;49.410;11.030;2022-12-07T08:29:15;98032.28;;;1.56;100.00
68226;BME280;55045;49.410;11.030;2022-12-07T08:32:22;98038.13;;;1.65;100.00
68226;BME280;55045;49.410;11.030;2022-12-07T08:35:28;98036.47;;;1.61;100.00
68226;BME280;55045;49.410;11.030;2022-12-07T08:38:31;98027.06;;;1.62;100.00
68226;BME280;55045;49.410;11.030;2022-12-07T08:41:37;98026.22;;;1.61;100.00
68226;BME280;55045;49.410;11.030;2022-12-07T08:44:45;98015.03;;;1.70;100.00
68226;BME280;55045;49.410;11.030;2022-12-07T08:47:52;98024.38;;;1.74;100.00
68226;BME280;55045;49.410;11.030;2022-12-07T08:50:57;98013.28;;;1.72;100.00
68226;BME280;55045;49.410;11.030;2022-12-07T08:54:04;98009.78;;;1.79;100.00
68226;BME280;55045;49.410;11.030;2022-12-07T08:57:13;98006.31;;;1.83;100.00
68226;BME280;55045;49.410;11.030;2022-12-07T09:00:16;98010.59;;;1.84;100.00
68226;BME280;55045;49.410;11.030;2022-12-07T09:03:20;98015.56;;;1.92;100.00
68226;BME280;55045;49.410;11.030;2022-12-07T09:06:23;98009.56;;;1.94;100.00
68226;BME280;55045;49.410;11.030;2022-12-07T09:09:26;98004.09;;;2.14;100.00
68226;BME280;55045;49.410;11.030;2022-12-07T09:12:31;98018.91;;;1.97;100.00
68226;BME280;55045;49.410;11.030;2022-12-07T09:15:34;98017.84;;;2.10;100.00
68226;BME280;55045;49.410;11.030;2022-12-07T09:18:40;98017.13;;;2.00;100.00
68226;BME280;55045;49.410;11.030;2022-12-07T09:21:48;98017.25;;;1.93;100.00
68226;BME280;55045;49.410;11.030;2022-12-07T09:24:55;98029.09;;;1.98;100.00
68226;BME280;55045;49.410;11.030;2022-12-07T09:28:00;98016.63;;;1.79;100.00
68226;BME280;55045;49.410;11.030;2022-12-07T09:31:04;98030.97;;;1.89;100.00
68226;BME280;55045;49.410;11.030;2022-12-07T09:34:26;98033.50;;;1.89;100.00
68226;BME280;55045;49.410;11.030;2022-12-07T09:37:37;98034.50;;;1.80;100.00
68226;BME280;55045;49.410;11.030;2022-12-07T09:40:47;98030.19;;;1.82;100.00
68226;BME280;55045;49.410;11.030;2022-12-07T09:43:57;98035.19;;;1.91;100.00
68226;BME280;55045;49.410;11.030;2022-12-07T09:47:01;98032.63;;;1.91;100.00
68226;BME280;55045;49.410;11.030;2022-12-07T09:50:11;98030.38;;;1.70;100.00
68226;BME280;55045;49.410;11.030;2022-12-07T09:53:19;98042.22;;;1.77;100.00
68226;BME280;55045;49.410;11.030;2022-12-07T09:56:25;98042.22;;;1.77;100.00
68226;BME280;55045;49.410;11.030;2022-12-07T09:59:30;98034.31;;;1.92;100.00
68226;BME280;55045;49.410;11.030;2022-12-07T10:02:39;98038.78;;;1.78;100.00
68226;BME280;55045;49.410;11.030;2022-12-07T10:05:46;98023.38;;;1.81;100.00
68226;BME280;55045;49.410;11.030;2022-12-07T10:08:50;98024.06;;;1.92;100.00
68226;BME280;55045;49.410;11.030;2022-12-07T10:12:04;98028.28;;;1.96;100.00
68226;BME280;55045;49.410;11.030;2022-12-07T10:15:10;98036.63;;;2.08;100.00
68226;BME280;55045;49.410;11.030;2022-12-07T10:18:25;98002.88;;;1.86;100.00
68226;BME280;55045;49.410;11.030;2022-12-07T10:21:31;98018.09;;;1.93;100.00
68226;BME280;55045;49.410;11.030;2022-12-07T10:24:39;98004.16;;;2.11;100.00
68226;BME280;55045;49.410;11.030;2022-12-07T10:27:57;98015.28;;;2.10;100.00
68226;BME280;55045;49.410;11.030;2022-12-07T10:34:49;97998.28;;;2.08;100.00
68226;BME280;55045;49.410;11.030;2022-12-07T10:37:58;97993.91;;;2.13;100.00
68226;BME280;55045;49.410;11.030;2022-12-07T10:41:06;97991.38;;;2.11;100.00
68226;BME280;55045;49.410;11.030;2022-12-07T10:44:21;97985.19;;;2.24;100.00
68226;BME280;55045;49.410;11.030;2022-12-07T10:47:35;97979.19;;;2.27;100.00
68226;BME280;55045;49.410;11.030;2022-12-07T10:50:57;97977.44;;;2.29;100.00
68226;BME280;55045;49.410;11.030;2022-12-07T10:54:14;97962.13;;;2.24;100.00
68226;BME280;55045;49.410;11.030;2022-12-07T10:57:35;97978.09;;;2.40;100.00
68226;BME280;55045;49.410;11.030;2022-12-07T11:00:46;97974.72;;;2.38;100.00
68226;BME280;55045;49.410;11.030;2022-12-07T11:04:18;97971.63;;;2.67;100.00
68226;BME280;55045;49.410;11.030;2022-12-07T11:07:38;97989.56;;;2.66;100.00
68226;BME280;55045;49.410;11.030;2022-12-07T11:10:47;97962.31;;;2.62;100.00
68226;BME280;55045;49.410;11.030;2022-12-07T11:13:58;97977.25;;;2.40;100.00
68226;BME280;55045;49.410;11.030;2022-12-07T11:17:10;97969.53;;;2.41;100.00
68226;BME280;55045;49.410;11.030;2022-12-07T11:20:29;97968.28;;;2.16;100.00
68226;BME280;55045;49.410;11.030;2022-12-07T11:23:48;97972.88;;;2.45;100.00
68226;BME280;55045;49.410;11.030;2022-12-07T11:27:03;97979.03;;;2.35;100.00
68226;BME280;55045;49.410;11.030;2022-12-07T11:30:19;97959.22;;;2.46;100.00
68226;BME280;55045;49.410;11.030;2022-12-07T11:33:31;97995.16;;;2.40;100.00
68226;BME280;55045;49.410;11.030;2022-12-07T11:36:40;97961.41;;;2.64;100.00
68226;BME280;55045;49.410;11.030;2022-12-07T11:39:50;97967.56;;;2.57;100.00
68226;BME280;55045;49.410;11.030;2022-12-07T11:42:59;97933.84;;;2.35;100.00
68226;BME280;55045;49.410;11.030;2022-12-07T11:46:09;97959.97;;;2.51;100.00
68226;BME280;55045;49.410;11.030;2022-12-07T11:49:21;97943.00;;;2.47;100.00
68226;BME280;55045;49.410;11.030;2022-12-07T11:52:36;97904.00;;;2.33;100.00
68226;BME280;55045;49.410;11.030;2022-12-07T11:55:52;97949.66;;;2.55;100.00
68226;BME280;55045;49.410;11.030;2022-12-07T11:59:01;97928.47;;;2.47;100.00
68226;BME280;55045;49.410;11.030;2022-12-07T12:02:16;97936.59;;;2.69;100.00
68226;BME280;55045;49.410;11.030;2022-12-07T12:05:36;97915.75;;;2.43;100.00
68226;BME280;55045;49.410;11.030;2022-12-07T12:08:55;97939.91;;;2.73;100.00
68226;BME280;55045;49.410;11.030;2022-12-07T12:20:00;97898.53;;;2.51;100.00
68226;BME280;55045;49.410;11.030;2022-12-07T12:23:11;97891.56;;;2.59;100.00
68226;BME280;55045;49.410;11.030;2022-12-07T12:26:21;97924.38;;;2.82;100.00
68226;BME280;55045;49.410;11.030;2022-12-07T12:29:39;97836.75;;;2.24;100.00
68226;BME280;55045;49.410;11.030;2022-12-07T12:32:45;97895.97;;;2.51;100.00
68226;BME280;55045;49.410;11.030;2022-12-07T12:36:17;97890.75;;;2.57;100.00
68226;BME280;55045;49.410;11.030;2022-12-07T12:39:22;97916.16;;;2.65;100.00
68226;BME280;55045;49.410;11.030;2022-12-07T12:42:43;97914.50;;;2.64;100.00
68226;BME280;55045;49.410;11.030;2022-12-07T12:49:40;97916.09;;;2.69;100.00
68226;BME280;55045;49.410;11.030;2022-12-07T12:53:14;97805.84;;;1.92;100.00
68226;BME280;55045;49.410;11.030;2022-12-07T12:56:32;97889.22;;;2.48;100.00
68226;BME280;55045;49.410;11.030;2022-12-07T12:59:41;97877.09;;;2.55;100.00
68226;BME280;55045;49.410;11.030;2022-12-07T13:02:52;97923.13;;;2.59;100.00
68226;BME280;55045;49.410;11.030;2022-12-07T13:06:19;97908.44;;;2.68;100.00
68226;BME280;55045;49.410;11.030;2022-12-07T13:09:28;97904.50;;;2.51;100.00
68226;BME280;55045;49.410;11.030;2022-12-07T13:12:40;97902.69;;;2.56;100.00
68226;BME280;55045;49.410;11.030;2022-12-07T13:15:46;97907.94;;;2.50;100.00
68226;BME280;55045;49.410;11.030;2022-12-07T13:19:00;97909.69;;;2.48;100.00
68226;BME280;55045;49.410;11.030;2022-12-07T13:22:35;97901.31;;;2.40;100.00
68226;BME280;55045;49.410;11.030;2022-12-07T13:25:53;97903.75;;;2.45;100.00
68226;BME280;55045;49.410;11.030;2022-12-07T13:29:14;97907.22;;;2.42;100.00
68226;BME280;55045;49.410;11.030;2022-12-07T13:32:24;97907.19;;;2.45;100.00
68226;BME280;55045;49.410;11.030;2022-12-07T13:35:37;97901.19;;;2.46;100.00
68226;BME280;55045;49.410;11.030;2022-12-07T13:38:59;97904.72;;;2.39;100.00
68226;BME280;55045;49.410;11.030;2022-12-07T13:42:19;97901.31;;;2.40;100.00
68226;BME280;55045;49.410;11.030;2022-12-07T13:45:33;97904.72;;;2.39;100.00
68226;BME280;55045;49.410;11.030;2022-12-07T13:48:56;97900.53;;;2.37;100.00
68226;BME280;55045;49.410;11.030;2022-12-07T13:52:16;97901.53;;;2.28;100.00
68226;BME280;55045;49.410;11.030;2022-12-07T13:55:20;97904.72;;;2.39;100.00
68226;BME280;55045;49.410;11.030;2022-12-07T13:58:30;97904.03;;;2.31;100.00
68226;BME280;55045;49.410;11.030;2022-12-07T14:01:34;97909.00;;;2.39;100.00
68226;BME280;55045;49.410;11.030;2022-12-07T14:04:37;97904.78;;;2.38;100.00
68226;BME280;55045;49.410;11.030;2022-12-07T14:07:53;97907.38;;;2.36;100.00
68226;BME280;55045;49.410;11.030;2022-12-07T14:10:59;97918.50;;;2.32;100.00
68226;BME280;55045;49.410;11.030;2022-12-07T14:14:03;97899.41;;;2.50;100.00
68226;BME280;55045;49.410;11.030;2022-12-07T14:17:17;97889.44;;;2.35;100.00
68226;BME280;55045;49.410;11.030;2022-12-07T14:20:35;97884.63;;;2.19;100.00
68226;BME280;55045;49.410;11.030;2022-12-07T14:23:41;97913.28;;;2.38;100.00
68226;BME280;55045;49.410;11.030;2022-12-07T14:26:51;97905.63;;;2.38;100.00
68226;BME280;55045;49.410;11.030;2022-12-07T14:29:59;97900.59;;;2.32;100.00
68226;BME280;55045;49.410;11.030;2022-12-07T14:33:05;97897.94;;;2.38;100.00
68226;BME280;55045;49.410;11.030;2022-12-07T14:36:16;97901.41;;;2.34;100.00
68226;BME280;55045;49.410;11.030;2022-12-07T14:39:22;97891.22;;;2.31;100.00
68226;BME280;55045;49.410;11.030;2022-12-07T14:42:32;97893.72;;;2.36;100.00
68226;BME280;55045;49.410;11.030;2022-12-07T14:45:41;97891.91;;;2.41;100.00
68226;BME280;55045;49.410;11.030;2022-12-07T14:48:52;97888.53;;;2.39;100.00
68226;BME280;55045;49.410;11.030;2022-12-07T14:52:28;97888.59;;;2.36;100.00
68226;BME280;55045;49.410;11.030;2022-12-07T14:56:07;97881.13;;;2.25;100.00
68226;BME280;55045;49.410;11.030;2022-12-07T14:59:11;97886.19;;;2.28;100.00
68226;BME280;55045;49.410;11.030;2022-12-07T15:02:15;97885.28;;;2.30;100.00
68226;BME280;55045;49.410;11.030;2022-12-07T15:05:19;97882.91;;;2.20;100.00
68226;BME280;55045;49.410;11.030;2022-12-07T15:08:24;97880.31;;;2.21;100.00
68226;BME280;55045;49.410;11.030;2022-12-07T15:11:31;97882.09;;;2.18;100.00
68226;BME280;55045;49.410;11.030;2022-12-07T15:14:38;97879.41;;;2.24;100.00
68226;BME280;55045;49.410;11.030;2022-12-07T15:17:43;97883.06;;;2.12;100.00
68226;BME280;55045;49.410;11.030;2022-12-07T15:20:50;97802.09;;;1.63;100.00
68226;BME280;55045;49.410;11.030;2022-12-07T15:23:54;97882.00;;;2.22;100.00
68226;BME280;55045;49.410;11.030;2022-12-07T15:27:03;97883.97;;;2.10;100.00
68226;BME280;55045;49.410;11.030;2022-12-07T15:30:10;97862.56;;;2.14;100.00
68226;BME280;55045;49.410;11.030;2022-12-07T15:33:14;97872.84;;;2.11;100.00
68226;BME280;55045;49.410;11.030;2022-12-07T15:36:21;97845.16;;;1.88;100.00
68226;BME280;55045;49.410;11.030;2022-12-07T15:39:28;97871.81;;;2.21;100.00
68226;BME280;55045;49.410;11.030;2022-12-07T15:42:36;97874.09;;;2.35;100.00
68226;BME280;55045;49.410;11.030;2022-12-07T15:45:42;97857.59;;;2.06;100.00
68226;BME280;55045;49.410;11.030;2022-12-07T15:48:45;97872.06;;;2.07;100.00
68226;BME280;55045;49.410;11.030;2022-12-07T15:51:50;97876.34;;;2.07;100.00
68226;BME280;55045;49.410;11.030;2022-12-07T15:54:54;97859.31;;;2.06;100.00
68226;BME280;55045;49.410;11.030;2022-12-07T15:57:59;97831.50;;;2.32;100.00
68226;BME280;55045;49.410;11.030;2022-12-07T16:01:10;97879.72;;;2.09;100.00
68226;BME280;55045;49.410;11.030;2022-12-07T16:04:17;97855.16;;;2.00;100.00
68226;BME280;55045;49.410;11.030;2022-12-07T16:07:21;97870.44;;;2.05;100.00
68226;BME280;55045;49.410;11.030;2022-12-07T16:10:30;97867.91;;;2.01;100.00
68226;BME280;55045;49.410;11.030;2022-12-07T16:13:35;97870.50;;;2.00;100.00
68226;BME280;55045;49.410;11.030;2022-12-07T16:16:39;97871.25;;;2.07;100.00
68226;BME280;55045;49.410;11.030;2022-12-07T16:20:11;97866.22;;;2.00;100.00
68226;BME280;55045;49.410;11.030;2022-12-07T16:23:15;97873.84;;;2.02;100.00
68226;BME280;55045;49.410;11.030;2022-12-07T16:26:20;97885.28;;;1.84;100.00
68226;BME280;55045;49.410;11.030;2022-12-07T16:29:28;97859.34;;;1.53;100.00
68226;BME280;55045;49.410;11.030;2022-12-07T16:34:54;97879.75;;;1.58;100.00
68226;BME280;55045;49.410;11.030;2022-12-07T16:37:57;97864.88;;;1.80;100.00
68226;BME280;55045;49.410;11.030;2022-12-07T16:41:06;97864.53;;;1.50;100.00
68226;BME280;55045;49.410;11.030;2022-12-07T16:44:14;97864.09;;;1.76;100.00
68226;BME280;55045;49.410;11.030;2022-12-07T16:47:18;97866.19;;;1.53;100.00